sensor_id;sensor_type;location;lat;lon;timestamp;pressure;altitude;pressure_sealevel;temperature;humidity
4085;BME280;2057;50.858;6.572;2023-02-27T00:00:33;101417.63;;;0.06;83.63
4085;BME280;2057;50.858;6.572;2023-02-27T00:02:58;101420.53;;;0.02;83.46
4085;BME280;2057;50.858;6.572;2023-02-27T00:05:26;101421.28;;;0.01;84.34
4085;BME280;2057;50.858;6.572;2023-02-27T00:07:51;101419.34;;;-0.02;84.76
4085;BME280;2057;50.858;6.572;2023-02-27T00:10:17;101421.81;;;0.14;84.63
4085;BME280;2057;50.858;6.572;2023-02-27T00:12:47;101422.97;;;0.09;84.13
4085;BME280;2057;50.858;6.572;2023-02-27T00:15:15;101424.09;;;0.04;84.35
4085;BME280;2057;50.858;6.572;2023-02-27T00:17:42;101427.63;;;0.06;84.92
4085;BME280;2057;50.858;6.572;2023-02-27T00:20:10;101424.97;;;0.04;84.72
4085;BME280;2057;50.858;6.572;2023-02-27T00:22:37;101422.63;;;-0.10;85.04
4085;BME280;2057;50.858;6.572;2023-02-27T00:25:03;101426.34;;;-0.07;85.25
4085;BME280;2057;50.858;6.572;2023-02-27T00:27:28;101419.88;;;-0.21;86.04
4085;BME280;2057;50.858;6.572;2023-02-27T00:29:54;101424.56;;;-0.08;85.77
4085;BME280;2057;50.858;6.572;2023-02-27T00:32:19;101424.00;;;-0.05;86.11
4085;BME280;2057;50.858;6.572;2023-02-27T00:34:47;101422.78;;;-0.09;86.10
4085;BME280;2057;50.858;6.572;2023-02-27T00:37:12;101430.38;;;0.00;86.24
4085;BME280;2057;50.858;6.572;2023-02-27T00:39:38;101427.69;;;-0.02;86.35
4085;BME280;2057;50.858;6.572;2023-02-27T00:42:03;101432.28;;;-0.13;86.15
4085;BME280;2057;50.858;6.572;2023-02-27T00:44:31;101432.84;;;-0.16;86.56
4085;BME280;2057;50.858;6.572;2023-02-27T00:46:56;101436.09;;;-0.01;86.66
4085;BME280;2057;50.858;6.572;2023-02-27T00:49:22;101430.91;;;-0.03;86.62
4085;BME280;2057;50.858;6.572;2023-02-27T00:51:47;101429.09;;;0.04;86.28
4085;BME280;2057;50.858;6.572;2023-02-27T00:54:12;101428.34;;;-0.11;86.83
4085;BME280;2057;50.858;6.572;2023-02-27T00:56:38;101426.44;;;-0.21;86.88
4085;BME280;2057;50.858;6.572;2023-02-27T00:59:05;101427.78;;;-0.32;87.17
4085;BME280;2057;50.858;6.572;2023-02-27T01:01:30;101424.94;;;-0.28;87.46
4085;BME280;2057;50.858;6.572;2023-02-27T01:03:56;101424.34;;;-0.25;87.88
4085;BME280;2057;50.858;6.572;2023-02-27T01:06:22;101426.44;;;-0.21;87.68
4085;BME280;2057;50.858;6.572;2023-02-27T01:08:49;101432.19;;;-0.22;87.72
4085;BME280;2057;50.858;6.572;2023-02-27T01:11:17;101425.56;;;-0.22;88.20
4085;BME280;2057;50.858;6.572;2023-02-27T01:13:42;101424.59;;;-0.31;87.49
4085;BME280;2057;50.858;6.572;2023-02-27T01:16:11;101420.22;;;-0.41;88.66
4085;BME280;2057;50.858;6.572;2023-02-27T01:18:36;101415.53;;;-0.38;88.95
4085;BME280;2057;50.858;6.572;2023-02-27T01:21:02;101423.50;;;-0.49;89.72
4085;BME280;2057;50.858;6.572;2023-02-27T01:23:27;101414.81;;;-0.37;89.14
4085;BME280;2057;50.858;6.572;2023-02-27T01:25:54;101418.38;;;-0.35;88.78
4085;BME280;2057;50.858;6.572;2023-02-27T01:28:19;101420.50;;;-0.30;89.12
4085;BME280;2057;50.858;6.572;2023-02-27T01:30:47;101416.59;;;-0.36;89.41
4085;BME280;2057;50.858;6.572;2023-02-27T01:33:13;101417.66;;;-0.34;89.34
4085;BME280;2057;50.858;6.572;2023-02-27T01:35:41;101415.88;;;-0.35;88.88
4085;BME280;2057;50.858;6.572;2023-02-27T01:38:06;101415.03;;;-0.42;89.32
4085;BME280;2057;50.858;6.572;2023-02-27T01:40:37;101408.06;;;-0.38;89.59
4085;BME280;2057;50.858;6.572;2023-02-27T01:43:04;101411.97;;;-0.33;89.09
4085;BME280;2057;50.858;6.572;2023-02-27T01:45:31;101405.84;;;-0.27;89.39
4085;BME280;2057;50.858;6.572;2023-02-27T01:50:35;101409.06;;;-0.28;89.00
4085;BME280;2057;50.858;6.572;2023-02-27T01:53:04;101404.63;;;-0.54;89.80
4085;BME280;2057;50.858;6.572;2023-02-27T01:55:32;101403.47;;;-0.42;90.45
4085;BME280;2057;50.858;6.572;2023-02-27T01:57:59;101407.91;;;-0.39;89.40
4085;BME280;2057;50.858;6.572;2023-02-27T02:00:25;101402.75;;;-0.41;89.69
4085;BME280;2057;50.858;6.572;2023-02-27T02:03:07;101407.41;;;-0.44;89.41
4085;BME280;2057;50.858;6.572;2023-02-27T02:05:35;101408.53;;;-0.49;89.69
4085;BME280;2057;50.858;6.572;2023-02-27T02:08:02;101406.28;;;-0.39;90.63
4085;BME280;2057;50.858;6.572;2023-02-27T02:10:28;101411.28;;;-0.39;89.92
4085;BME280;2057;50.858;6.572;2023-02-27T02:12:54;101407.41;;;-0.44;90.33
4085;BME280;2057;50.858;6.572;2023-02-27T02:15:26;101412.19;;;-0.38;89.71
4085;BME280;2057;50.858;6.572;2023-02-27T02:23:49;101409.69;;;-0.38;90.14
4085;BME280;2057;50.858;6.572;2023-02-27T02:32:53;101412.53;;;-0.35;89.67
4085;BME280;2057;50.858;6.572;2023-02-27T02:40:36;101419.50;;;-0.40;90.14
4085;BME280;2057;50.858;6.572;2023-02-27T02:48:20;101421.25;;;-0.39;89.84
4085;BME280;2057;50.858;6.572;2023-02-27T02:51:03;101413.38;;;-0.35;90.12
4085;BME280;2057;50.858;6.572;2023-02-27T02:58:57;101418.88;;;-0.53;90.37
4085;BME280;2057;50.858;6.572;2023-02-27T03:01:35;101414.63;;;-0.54;90.48
4085;BME280;2057;50.858;6.572;2023-02-27T03:04:15;101414.81;;;-0.60;90.58
4085;BME280;2057;50.858;6.572;2023-02-27T03:06:49;101419.66;;;-0.61;90.66
4085;BME280;2057;50.858;6.572;2023-02-27T03:09:23;101426.44;;;-0.60;90.77
4085;BME280;2057;50.858;6.572;2023-02-27T03:11:52;101419.81;;;-0.60;90.87
4085;BME280;2057;50.858;6.572;2023-02-27T03:14:38;101430.34;;;-0.63;90.64
4085;BME280;2057;50.858;6.572;2023-02-27T03:17:08;101429.13;;;-0.66;90.84
4085;BME280;2057;50.858;6.572;2023-02-27T03:19:40;101429.69;;;-0.69;91.22
4085;BME280;2057;50.858;6.572;2023-02-27T03:22:10;101436.31;;;-0.76;90.78
4085;BME280;2057;50.858;6.572;2023-02-27T03:24:41;101439.72;;;-0.76;91.04
4085;BME280;2057;50.858;6.572;2023-02-27T03:27:10;101441.50;;;-0.75;91.09
4085;BME280;2057;50.858;6.572;2023-02-27T03:29:56;101442.41;;;-0.82;90.65
4085;BME280;2057;50.858;6.572;2023-02-27T03:32:37;101455.09;;;-0.87;91.34
4085;BME280;2057;50.858;6.572;2023-02-27T03:35:07;101449.03;;;-0.89;91.50
4085;BME280;2057;50.858;6.572;2023-02-27T03:37:57;101458.81;;;-0.84;91.98
4085;BME280;2057;50.858;6.572;2023-02-27T03:40:33;101456.00;;;-0.87;91.76
4085;BME280;2057;50.858;6.572;2023-02-27T03:43:20;101458.13;;;-0.90;91.59
4085;BME280;2057;50.858;6.572;2023-02-27T03:46:02;101453.97;;;-0.82;91.32
4085;BME280;2057;50.858;6.572;2023-02-27T03:48:31;101457.75;;;-0.86;91.40
4085;BME280;2057;50.858;6.572;2023-02-27T03:50:56;101465.78;;;-0.88;91.38
4085;BME280;2057;50.858;6.572;2023-02-27T03:53:40;101467.56;;;-0.87;91.74
4085;BME280;2057;50.858;6.572;2023-02-27T03:56:08;101461.56;;;-0.97;91.78
4085;BME280;2057;50.858;6.572;2023-02-27T03:58:40;101468.16;;;-0.97;91.78
4085;BME280;2057;50.858;6.572;2023-02-27T04:01:05;101466.38;;;-0.98;92.06
4085;BME280;2057;50.858;6.572;2023-02-27T04:03:33;101470.84;;;-1.03;91.92
4085;BME280;2057;50.858;6.572;2023-02-27T04:06:00;101472.63;;;-1.02;92.17
4085;BME280;2057;50.858;6.572;2023-02-27T04:11:40;101470.50;;;-1.06;91.88
4085;BME280;2057;50.858;6.572;2023-02-27T04:17:25;101474.09;;;-1.11;92.34
4085;BME280;2057;50.858;6.572;2023-02-27T04:20:16;101473.41;;;-1.24;92.49
4085;BME280;2057;50.858;6.572;2023-02-27T04:22:54;101480.19;;;-1.23;93.21
4085;BME280;2057;50.858;6.572;2023-02-27T04:25:42;101474.88;;;-1.27;93.47
4085;BME280;2057;50.858;6.572;2023-02-27T04:31:07;101471.72;;;-1.40;93.67
4085;BME280;2057;50.858;6.572;2023-02-27T04:36:26;101475.06;;;-1.32;93.78
4085;BME280;2057;50.858;6.572;2023-02-27T04:39:04;101477.53;;;-1.25;93.95
4085;BME280;2057;50.858;6.572;2023-02-27T04:41:50;101479.13;;;-1.18;94.17
4085;BME280;2057;50.858;6.572;2023-02-27T04:44:19;101481.97;;;-1.22;93.37
4085;BME280;2057;50.858;6.572;2023-02-27T04:46:49;101478.44;;;-1.32;92.68
4085;BME280;2057;50.858;6.572;2023-02-27T04:49:25;101477.91;;;-1.36;92.61
4085;BME280;2057;50.858;6.572;2023-02-27T04:52:08;101481.81;;;-1.38;92.84
4085;BME280;2057;50.858;6.572;2023-02-27T04:54:47;101476.38;;;-1.43;93.37
4085;BME280;2057;50.858;6.572;2023-02-27T04:57:18;101487.34;;;-1.41;93.17
4085;BME280;2057;50.858;6.572;2023-02-27T04:59:51;101490.94;;;-1.46;93.78
4085;BME280;2057;50.858;6.572;2023-02-27T05:02:32;101496.59;;;-1.40;93.84
4085;BME280;2057;50.858;6.572;2023-02-27T05:05:04;101498.03;;;-1.35;93.92
4085;BME280;2057;50.858;6.572;2023-02-27T05:07:35;101497.28;;;-1.34;94.35
4085;BME280;2057;50.858;6.572;2023-02-27T05:10:14;101495.34;;;-1.36;94.14
4085;BME280;2057;50.858;6.572;2023-02-27T05:13:12;101496.41;;;-1.34;94.44
4085;BME280;2057;50.858;6.572;2023-02-27T05:15:45;101496.56;;;-1.33;94.41
4085;BME280;2057;50.858;6.572;2023-02-27T05:18:16;101505.69;;;-1.40;94.33
4085;BME280;2057;50.858;6.572;2023-02-27T05:21:16;101502.31;;;-1.48;93.99
4085;BME280;2057;50.858;6.572;2023-02-27T05:24:13;101499.28;;;-1.46;94.56
4085;BME280;2057;50.858;6.572;2023-02-27T05:27:19;101505.19;;;-1.45;94.88
4085;BME280;2057;50.858;6.572;2023-02-27T05:29:51;101501.78;;;-1.46;94.92
4085;BME280;2057;50.858;6.572;2023-02-27T05:32:37;101512.47;;;-1.54;94.46
4085;BME280;2057;50.858;6.572;2023-02-27T05:38:04;101515.16;;;-1.52;95.26
4085;BME280;2057;50.858;6.572;2023-02-27T05:40:36;101516.19;;;-1.50;95.31
4085;BME280;2057;50.858;6.572;2023-02-27T05:43:08;101514.09;;;-1.54;95.77
4085;BME280;2057;50.858;6.572;2023-02-27T05:45:38;101514.78;;;-1.55;95.72
4085;BME280;2057;50.858;6.572;2023-02-27T05:48:13;101515.50;;;-1.56;95.75
4085;BME280;2057;50.858;6.572;2023-02-27T05:50:41;101515.50;;;-1.56;95.32
4085;BME280;2057;50.858;6.572;2023-02-27T05:53:11;101516.94;;;-1.59;96.01
4085;BME280;2057;50.858;6.572;2023-02-27T05:55:46;101511.25;;;-1.58;95.74
4085;BME280;2057;50.858;6.572;2023-02-27T05:58:17;101519.09;;;-1.62;95.97
4085;BME280;2057;50.858;6.572;2023-02-27T06:00:48;101512.34;;;-1.70;96.15
4085;BME280;2057;50.858;6.572;2023-02-27T06:03:17;101525.84;;;-1.75;97.03
4085;BME280;2057;50.858;6.572;2023-02-27T06:05:42;101522.31;;;-1.70;97.21
4085;BME280;2057;50.858;6.572;2023-02-27T06:08:08;101517.84;;;-1.65;97.19
4085;BME280;2057;50.858;6.572;2023-02-27T06:10:34;101523.34;;;-1.68;96.98
4085;BME280;2057;50.858;6.572;2023-02-27T06:13:02;101528.16;;;-1.69;96.65
4085;BME280;2057;50.858;6.572;2023-02-27T06:15:28;101530.09;;;-1.67;97.50
4085;BME280;2057;50.858;6.572;2023-02-27T06:17:53;101530.81;;;-1.68;97.10
4085;BME280;2057;50.858;6.572;2023-02-27T06:20:22;101532.03;;;-1.64;96.97
4085;BME280;2057;50.858;6.572;2023-02-27T06:22:49;101529.56;;;-1.71;96.77
4085;BME280;2057;50.858;6.572;2023-02-27T06:25:14;101529.78;;;-1.70;97.24
4085;BME280;2057;50.858;6.572;2023-02-27T06:27:40;101530.13;;;-1.74;97.27
4085;BME280;2057;50.858;6.572;2023-02-27T06:30:06;101538.97;;;-1.69;96.79
4085;BME280;2057;50.858;6.572;2023-02-27T06:32:32;101541.16;;;-1.72;97.14
4085;BME280;2057;50.858;6.572;2023-02-27T06:34:57;101544.88;;;-1.68;97.22
4085;BME280;2057;50.858;6.572;2023-02-27T06:37:25;101544.34;;;-1.73;97.11
4085;BME280;2057;50.858;6.572;2023-02-27T06:39:50;101549.69;;;-1.70;97.16
4085;BME280;2057;50.858;6.572;2023-02-27T06:42:16;101544.72;;;-1.70;97.40
4085;BME280;2057;50.858;6.572;2023-02-27T06:44:43;101541.28;;;-1.63;97.04
4085;BME280;2057;50.858;6.572;2023-02-27T06:47:09;101545.25;;;-1.65;97.03
4085;BME280;2057;50.858;6.572;2023-02-27T06:49:34;101543.28;;;-1.61;97.24
4085;BME280;2057;50.858;6.572;2023-02-27T06:52:00;101546.25;;;-1.56;97.31
4085;BME280;2057;50.858;6.572;2023-02-27T06:54:25;101551.06;;;-1.58;96.78
4085;BME280;2057;50.858;6.572;2023-02-27T06:56:51;101557.47;;;-1.60;96.74
4085;BME280;2057;50.858;6.572;2023-02-27T06:59:17;101567.97;;;-1.62;97.04
4085;BME280;2057;50.858;6.572;2023-02-27T07:01:42;101559.97;;;-1.60;97.30
4085;BME280;2057;50.858;6.572;2023-02-27T07:04:12;101575.28;;;-1.64;97.61
4085;BME280;2057;50.858;6.572;2023-02-27T07:06:38;101577.94;;;-1.62;97.83
4085;BME280;2057;50.858;6.572;2023-02-27T07:09:03;101579.16;;;-1.59;97.98
4085;BME280;2057;50.858;6.572;2023-02-27T07:11:28;101575.25;;;-1.49;97.87
4085;BME280;2057;50.858;6.572;2023-02-27T07:13:54;101577.75;;;-1.49;97.84
4085;BME280;2057;50.858;6.572;2023-02-27T07:16:20;101572.78;;;-1.56;97.97
4085;BME280;2057;50.858;6.572;2023-02-27T07:18:45;101586.13;;;-1.49;98.12
4085;BME280;2057;50.858;6.572;2023-02-27T07:21:13;101584.69;;;-1.39;97.69
4085;BME280;2057;50.858;6.572;2023-02-27T07:23:43;101589.81;;;-1.31;97.53
4085;BME280;2057;50.858;6.572;2023-02-27T07:26:09;101593.22;;;-1.30;97.31
4085;BME280;2057;50.858;6.572;2023-02-27T07:28:34;101590.53;;;-1.32;97.42
4085;BME280;2057;50.858;6.572;2023-02-27T07:31:00;101595.88;;;-1.29;97.48
4085;BME280;2057;50.858;6.572;2023-02-27T07:33:25;101597.25;;;-1.23;97.61
4085;BME280;2057;50.858;6.572;2023-02-27T07:35:51;101602.44;;;-1.15;97.87
4085;BME280;2057;50.858;6.572;2023-02-27T07:38:19;101602.75;;;-1.12;97.22
4085;BME280;2057;50.858;6.572;2023-02-27T07:40:47;101607.56;;;-1.06;97.48
4085;BME280;2057;50.858;6.572;2023-02-27T07:43:12;101611.81;;;-0.98;97.52
4085;BME280;2057;50.858;6.572;2023-02-27T07:45:38;101613.22;;;-0.92;97.47
4085;BME280;2057;50.858;6.572;2023-02-27T07:48:03;101614.28;;;-0.90;96.79
4085;BME280;2057;50.858;6.572;2023-02-27T07:50:28;101617.47;;;-0.84;96.84
4085;BME280;2057;50.858;6.572;2023-02-27T07:52:54;101615.00;;;-0.91;96.86
4085;BME280;2057;50.858;6.572;2023-02-27T07:55:19;101616.25;;;-0.88;97.01
4085;BME280;2057;50.858;6.572;2023-02-27T07:57:44;101619.25;;;-0.83;96.40
4085;BME280;2057;50.858;6.572;2023-02-27T08:00:13;101624.75;;;-0.86;96.76
4085;BME280;2057;50.858;6.572;2023-02-27T08:02:39;101634.00;;;-0.77;96.24
4085;BME280;2057;50.858;6.572;2023-02-27T08:05:07;101632.41;;;-0.77;96.17
4085;BME280;2057;50.858;6.572;2023-02-27T08:07:32;101638.41;;;-0.60;96.75
4085;BME280;2057;50.858;6.572;2023-02-27T08:09:58;101635.53;;;-0.64;95.97
4085;BME280;2057;50.858;6.572;2023-02-27T08:12:23;101634.13;;;-0.61;95.48
4085;BME280;2057;50.858;6.572;2023-02-27T08:14:49;101624.31;;;-0.60;95.54
4085;BME280;2057;50.858;6.572;2023-02-27T08:17:17;101632.84;;;-0.58;95.65
4085;BME280;2057;50.858;6.572;2023-02-27T08:19:42;101624.78;;;-0.41;96.04
4085;BME280;2057;50.858;6.572;2023-02-27T08:22:10;101624.78;;;-0.41;96.11
4085;BME280;2057;50.858;6.572;2023-02-27T08:24:36;101620.81;;;-0.39;96.29
4085;BME280;2057;50.858;6.572;2023-02-27T08:27:02;101626.31;;;-0.27;95.94
4085;BME280;2057;50.858;6.572;2023-02-27T08:29:28;101632.19;;;-0.26;95.48
4085;BME280;2057;50.858;6.572;2023-02-27T08:31:55;101631.63;;;-0.24;95.27
4085;BME280;2057;50.858;6.572;2023-02-27T08:34:20;101625.19;;;-0.22;94.34
4085;BME280;2057;50.858;6.572;2023-02-27T08:36:45;101641.25;;;-0.20;93.89
4085;BME280;2057;50.858;6.572;2023-02-27T08:39:10;101634.97;;;-0.16;94.07
4085;BME280;2057;50.858;6.572;2023-02-27T08:41:36;101634.94;;;-0.09;94.19
4085;BME280;2057;50.858;6.572;2023-02-27T08:44:02;101641.00;;;-0.07;94.58
4085;BME280;2057;50.858;6.572;2023-02-27T08:46:27;101637.59;;;-0.07;94.66
4085;BME280;2057;50.858;6.572;2023-02-27T08:48:53;101638.81;;;-0.04;94.98
4085;BME280;2057;50.858;6.572;2023-02-27T08:51:18;101641.28;;;0.04;94.58
4085;BME280;2057;50.858;6.572;2023-02-27T08:53:44;101637.31;;;0.06;94.85
4085;BME280;2057;50.858;6.572;2023-02-27T08:56:09;101636.59;;;0.07;94.29
4085;BME280;2057;50.858;6.572;2023-02-27T08:58:37;101642.66;;;0.09;93.25
4085;BME280;2057;50.858;6.572;2023-02-27T09:01:03;101636.97;;;0.10;93.03
4085;BME280;2057;50.858;6.572;2023-02-27T09:03:28;101632.25;;;0.20;92.77
4085;BME280;2057;50.858;6.572;2023-02-27T09:05:55;101645.06;;;0.23;92.25
4085;BME280;2057;50.858;6.572;2023-02-27T09:08:23;101638.56;;;0.33;91.61
4085;BME280;2057;50.858;6.572;2023-02-27T09:10:49;101632.47;;;0.38;91.49
4085;BME280;2057;50.858;6.572;2023-02-27T09:13:14;101642.22;;;0.43;91.31
4085;BME280;2057;50.858;6.572;2023-02-27T09:15:40;101631.06;;;0.56;90.67
4085;BME280;2057;50.858;6.572;2023-02-27T09:18:05;101638.34;;;0.61;88.24
4085;BME280;2057;50.858;6.572;2023-02-27T09:20:34;101630.69;;;0.76;84.58
4085;BME280;2057;50.858;6.572;2023-02-27T09:23:01;101637.69;;;0.71;84.43
4085;BME280;2057;50.858;6.572;2023-02-27T09:25:27;101635.13;;;0.78;83.34
4085;BME280;2057;50.858;6.572;2023-02-27T09:27:53;101638.22;;;0.92;80.84
4085;BME280;2057;50.858;6.572;2023-02-27T09:30:18;101636.13;;;1.04;79.39
4085;BME280;2057;50.858;6.572;2023-02-27T09:32:44;101634.06;;;1.00;79.45
4085;BME280;2057;50.858;6.572;2023-02-27T09:35:09;101634.34;;;1.03;78.35
4085;BME280;2057;50.858;6.572;2023-02-27T09:37:35;101637.97;;;1.14;77.85
4085;BME280;2057;50.858;6.572;2023-02-27T09:40:01;101637.59;;;1.18;78.16
4085;BME280;2057;50.858;6.572;2023-02-27T09:42:36;101645.09;;;1.34;77.62
4085;BME280;2057;50.858;6.572;2023-02-27T09:45:15;101652.59;;;1.18;78.01
4085;BME280;2057;50.858;6.572;2023-02-27T09:47:46;101644.91;;;1.48;78.71
4085;BME280;2057;50.858;6.572;2023-02-27T09:53:14;101650.81;;;1.49;77.58
4085;BME280;2057;50.858;6.572;2023-02-27T09:55:42;101649.28;;;1.42;78.79
4085;BME280;2057;50.858;6.572;2023-02-27T10:00:48;101649.97;;;1.57;77.98
4085;BME280;2057;50.858;6.572;2023-02-27T10:06:25;101646.34;;;1.62;78.04
4085;BME280;2057;50.858;6.572;2023-02-27T10:09:04;101645.31;;;1.85;79.58
4085;BME280;2057;50.858;6.572;2023-02-27T10:16:50;101652.31;;;1.71;78.86
4085;BME280;2057;50.858;6.572;2023-02-27T10:19:31;101649.00;;;1.80;79.32
4085;BME280;2057;50.858;6.572;2023-02-27T10:21:58;101648.41;;;1.82;79.94
4085;BME280;2057;50.858;6.572;2023-02-27T10:24:27;101644.97;;;1.98;81.10
4085;BME280;2057;50.858;6.572;2023-02-27T10:26:58;101643.81;;;2.28;84.05
4085;BME280;2057;50.858;6.572;2023-02-27T10:32:01;101637.16;;;1.95;79.50
4085;BME280;2057;50.858;6.572;2023-02-27T10:34:28;101643.63;;;1.93;79.61
4085;BME280;2057;50.858;6.572;2023-02-27T10:36:55;101648.63;;;1.93;79.50
4085;BME280;2057;50.858;6.572;2023-02-27T10:39:23;101651.03;;;2.00;79.18
4085;BME280;2057;50.858;6.572;2023-02-27T10:41:50;101652.59;;;2.15;79.13
4085;BME280;2057;50.858;6.572;2023-02-27T10:44:16;101643.19;;;1.97;78.56
4085;BME280;2057;50.858;6.572;2023-02-27T10:46:43;101653.75;;;2.10;79.21
4085;BME280;2057;50.858;6.572;2023-02-27T10:49:17;101649.47;;;2.09;78.51
4085;BME280;2057;50.858;6.572;2023-02-27T10:51:43;101647.56;;;2.15;80.29
4085;BME280;2057;50.858;6.572;2023-02-27T10:57:03;101647.34;;;2.30;79.40
4085;BME280;2057;50.858;6.572;2023-02-27T10:59:32;101649.91;;;2.39;77.07
4085;BME280;2057;50.858;6.572;2023-02-27T11:02:05;101641.50;;;2.38;77.87
4085;BME280;2057;50.858;6.572;2023-02-27T11:04:36;101647.88;;;2.43;77.27
4085;BME280;2057;50.858;6.572;2023-02-27T11:07:04;101643.25;;;2.39;75.74
4085;BME280;2057;50.858;6.572;2023-02-27T11:09:34;101644.63;;;2.44;75.98
4085;BME280;2057;50.858;6.572;2023-02-27T11:12:21;101642.84;;;2.77;75.94
4085;BME280;2057;50.858;6.572;2023-02-27T11:14:52;101629.97;;;2.74;74.73
4085;BME280;2057;50.858;6.572;2023-02-27T11:17:29;101636.94;;;2.85;73.37
4085;BME280;2057;50.858;6.572;2023-02-27T11:19:58;101629.25;;;2.83;73.46
4085;BME280;2057;50.858;6.572;2023-02-27T11:22:26;101627.78;;;2.86;73.53
4085;BME280;2057;50.858;6.572;2023-02-27T11:25:13;101621.75;;;3.01;73.38
4085;BME280;2057;50.858;6.572;2023-02-27T11:27:40;101624.00;;;2.98;74.07
4085;BME280;2057;50.858;6.572;2023-02-27T11:30:28;101620.00;;;3.00;76.26
4085;BME280;2057;50.858;6.572;2023-02-27T11:32:56;101618.06;;;2.97;75.31
4085;BME280;2057;50.858;6.572;2023-02-27T11:37:53;101603.34;;;3.18;76.21
4085;BME280;2057;50.858;6.572;2023-02-27T11:40:20;101602.16;;;3.32;74.33
4085;BME280;2057;50.858;6.572;2023-02-27T11:42:51;101598.34;;;3.36;73.65
4085;BME280;2057;50.858;6.572;2023-02-27T11:45:30;101595.22;;;3.38;72.42
4085;BME280;2057;50.858;6.572;2023-02-27T11:48:07;101588.13;;;3.43;73.37
4085;BME280;2057;50.858;6.572;2023-02-27T11:53:36;101587.66;;;3.65;71.38
4085;BME280;2057;50.858;6.572;2023-02-27T11:56:15;101579.97;;;3.63;72.18
4085;BME280;2057;50.858;6.572;2023-02-27T11:59:24;101566.13;;;3.58;71.70
4085;BME280;2057;50.858;6.572;2023-02-27T12:04:15;101553.44;;;3.48;69.19
4085;BME280;2057;50.858;6.572;2023-02-27T12:07:01;101546.28;;;3.61;71.46
4085;BME280;2057;50.858;6.572;2023-02-27T12:09:56;101548.19;;;3.72;71.71
4085;BME280;2057;50.858;6.572;2023-02-27T12:12:29;101542.63;;;3.66;71.39
4085;BME280;2057;50.858;6.572;2023-02-27T12:15:13;101545.94;;;3.84;69.36
4085;BME280;2057;50.858;6.572;2023-02-27T12:17:46;101545.94;;;3.84;69.37
4085;BME280;2057;50.858;6.572;2023-02-27T12:20:21;101534.03;;;4.10;68.58
4085;BME280;2057;50.858;6.572;2023-02-27T12:22:50;101536.69;;;4.11;68.23
4085;BME280;2057;50.858;6.572;2023-02-27T12:25:26;101531.97;;;4.05;67.95
4085;BME280;2057;50.858;6.572;2023-02-27T12:30:26;101519.22;;;4.13;65.70
4085;BME280;2057;50.858;6.572;2023-02-27T12:33:08;101516.41;;;4.18;66.41
4085;BME280;2057;50.858;6.572;2023-02-27T12:35:38;101513.47;;;4.14;65.47
4085;BME280;2057;50.858;6.572;2023-02-27T12:38:04;101511.16;;;4.34;65.59
4085;BME280;2057;50.858;6.572;2023-02-27T12:40:36;101509.97;;;4.31;65.63
4085;BME280;2057;50.858;6.572;2023-02-27T12:43:25;101500.59;;;4.38;65.88
4085;BME280;2057;50.858;6.572;2023-02-27T12:46:23;101503.94;;;4.48;64.48
4085;BME280;2057;50.858;6.572;2023-02-27T12:49:16;101491.88;;;4.44;63.67
4085;BME280;2057;50.858;6.572;2023-02-27T13:00:05;101493.44;;;4.71;63.89
4085;BME280;2057;50.858;6.572;2023-02-27T13:10:58;101493.41;;;4.90;63.86
4085;BME280;2057;50.858;6.572;2023-02-27T13:16:12;101480.59;;;4.87;63.59
4085;BME280;2057;50.858;6.572;2023-02-27T13:18:51;101487.94;;;4.94;63.15
4085;BME280;2057;50.858;6.572;2023-02-27T13:21:35;101479.69;;;5.06;63.39
4085;BME280;2057;50.858;6.572;2023-02-27T13:24:24;101487.38;;;5.07;62.99
4085;BME280;2057;50.858;6.572;2023-02-27T13:27:15;101478.50;;;5.21;62.99
4085;BME280;2057;50.858;6.572;2023-02-27T13:32:45;101490.34;;;5.22;62.81
4085;BME280;2057;50.858;6.572;2023-02-27T13:35:37;101484.56;;;5.23;62.84
4085;BME280;2057;50.858;6.572;2023-02-27T13:38:32;101483.59;;;5.31;62.87
4085;BME280;2057;50.858;6.572;2023-02-27T13:43:46;101471.78;;;5.41;62.09
4085;BME280;2057;50.858;6.572;2023-02-27T13:46:31;101488.16;;;5.16;62.86
4085;BME280;2057;50.858;6.572;2023-02-27T13:56:30;101485.53;;;5.44;62.92
4085;BME280;2057;50.858;6.572;2023-02-27T13:59:09;101483.13;;;5.46;63.40
4085;BME280;2057;50.858;6.572;2023-02-27T14:01:36;101477.22;;;5.56;62.64
4085;BME280;2057;50.858;6.572;2023-02-27T14:04:04;101478.78;;;5.74;62.38
4085;BME280;2057;50.858;6.572;2023-02-27T14:06:32;101488.72;;;5.62;61.29
4085;BME280;2057;50.858;6.572;2023-02-27T14:08:58;101482.47;;;5.68;61.34
4085;BME280;2057;50.858;6.572;2023-02-27T14:11:29;101478.16;;;5.77;60.38
4085;BME280;2057;50.858;6.572;2023-02-27T14:14:06;101488.66;;;5.92;60.60
4085;BME280;2057;50.858;6.572;2023-02-27T14:24:34;101494.06;;;5.76;61.45
4085;BME280;2057;50.858;6.572;2023-02-27T14:27:04;101485.78;;;5.97;59.79
4085;BME280;2057;50.858;6.572;2023-02-27T14:29:32;101478.63;;;6.02;59.53
4085;BME280;2057;50.858;6.572;2023-02-27T14:32:02;101487.84;;;6.33;58.88
4085;BME280;2057;50.858;6.572;2023-02-27T14:34:28;101482.81;;;6.02;58.79
4085;BME280;2057;50.858;6.572;2023-02-27T14:36:58;101477.69;;;5.81;59.18
4085;BME280;2057;50.858;6.572;2023-02-27T14:39:31;101481.53;;;5.27;60.07
4085;BME280;2057;50.858;6.572;2023-02-27T14:44:50;101473.47;;;6.01;60.95
4085;BME280;2057;50.858;6.572;2023-02-27T14:47:25;101469.41;;;6.03;58.61
4085;BME280;2057;50.858;6.572;2023-02-27T14:49:52;101470.84;;;6.30;58.28
4085;BME280;2057;50.858;6.572;2023-02-27T14:52:23;101467.69;;;6.22;58.65
4085;BME280;2057;50.858;6.572;2023-02-27T14:54:49;101464.06;;;5.79;59.46
4085;BME280;2057;50.858;6.572;2023-02-27T14:57:24;101460.16;;;5.62;60.09
4085;BME280;2057;50.858;6.572;2023-02-27T14:59:52;101465.16;;;5.52;60.48
4085;BME280;2057;50.858;6.572;2023-02-27T15:02:24;101465.28;;;6.03;60.64
4085;BME280;2057;50.858;6.572;2023-02-27T15:05:14;101471.94;;;6.03;59.03
4085;BME280;2057;50.858;6.572;2023-02-27T15:07:45;101469.03;;;5.98;59.57
4085;BME280;2057;50.858;6.572;2023-02-27T15:10:21;101468.94;;;6.07;58.17
4085;BME280;2057;50.858;6.572;2023-02-27T15:12:50;101473.25;;;6.28;58.03
4085;BME280;2057;50.858;6.572;2023-02-27T15:15:18;101467.56;;;6.41;56.68
4085;BME280;2057;50.858;6.572;2023-02-27T15:17:44;101474.97;;;6.71;56.95
4085;BME280;2057;50.858;6.572;2023-02-27T15:20:31;101471.91;;;6.85;55.98
4085;BME280;2057;50.858;6.572;2023-02-27T15:22:58;101473.59;;;6.64;56.16
4085;BME280;2057;50.858;6.572;2023-02-27T15:25:29;101466.56;;;6.50;57.27
4085;BME280;2057;50.858;6.572;2023-02-27T15:27:56;101479.91;;;6.49;56.70
4085;BME280;2057;50.858;6.572;2023-02-27T15:30:24;101471.72;;;6.62;58.58
4085;BME280;2057;50.858;6.572;2023-02-27T15:32:50;101466.59;;;6.82;56.67